sensor_id;sensor_type;location;lat;lon;timestamp;temperature;humidity
12847;DHT22;6492;48.128;8.320;2022-09-30T00:02:36;5.30;74.20
12847;DHT22;6492;48.128;8.320;2022-09-30T00:06:39;5.30;74.30
12847;DHT22;6492;48.128;8.320;2022-09-30T00:10:41;5.30;74.40
12847;DHT22;6492;48.128;8.320;2022-09-30T00:14:42;5.30;74.50
12847;DHT22;6492;48.128;8.320;2022-09-30T00:18:44;5.40;74.50
12847;DHT22;6492;48.128;8.320;2022-09-30T00:22:47;5.40;74.70
12847;DHT22;6492;48.128;8.320;2022-09-30T00:26:49;5.30;74.80
12847;DHT22;6492;48.128;8.320;2022-09-30T00:30:51;5.40;74.70
12847;DHT22;6492;48.128;8.320;2022-09-30T00:34:53;5.40;74.70
12847;DHT22;6492;48.128;8.320;2022-09-30T00:38:56;5.40;74.70
12847;DHT22;6492;48.128;8.320;2022-09-30T00:42:58;5.40;74.70
12847;DHT22;6492;48.128;8.320;2022-09-30T00:47:00;5.40;74.70
12847;DHT22;6492;48.128;8.320;2022-09-30T00:51:04;5.30;74.80
12847;DHT22;6492;48.128;8.320;2022-09-30T00:55:14;5.40;74.90
12847;DHT22;6492;48.128;8.320;2022-09-30T00:59:24;5.50;75.20
12847;DHT22;6492;48.128;8.320;2022-09-30T01:03:29;5.50;75.40
12847;DHT22;6492;48.128;8.320;2022-09-30T01:07:33;5.60;75.30
12847;DHT22;6492;48.128;8.320;2022-09-30T01:11:38;5.60;75.40
12847;DHT22;6492;48.128;8.320;2022-09-30T01:16:07;5.60;75.40
12847;DHT22;6492;48.128;8.320;2022-09-30T01:25:30;5.60;75.30
12847;DHT22;6492;48.128;8.320;2022-09-30T01:34:16;5.50;75.20
12847;DHT22;6492;48.128;8.320;2022-09-30T01:38:26;5.50;75.20
12847;DHT22;6492;48.128;8.320;2022-09-30T01:42:35;5.50;75.20
12847;DHT22;6492;48.128;8.320;2022-09-30T01:46:41;5.50;75.10
12847;DHT22;6492;48.128;8.320;2022-09-30T01:50:50;5.40;74.90
12847;DHT22;6492;48.128;8.320;2022-09-30T01:54:58;5.40;75.00
12847;DHT22;6492;48.128;8.320;2022-09-30T01:59:05;5.40;74.90
12847;DHT22;6492;48.128;8.320;2022-09-30T02:03:11;5.30;74.80
12847;DHT22;6492;48.128;8.320;2022-09-30T02:07:21;5.30;74.90
12847;DHT22;6492;48.128;8.320;2022-09-30T02:11:27;5.30;75.00
12847;DHT22;6492;48.128;8.320;2022-09-30T02:15:33;5.20;74.80
12847;DHT22;6492;48.128;8.320;2022-09-30T02:19:38;5.10;74.60
12847;DHT22;6492;48.128;8.320;2022-09-30T02:23:43;5.00;74.50
12847;DHT22;6492;48.128;8.320;2022-09-30T02:27:49;5.00;74.50
12847;DHT22;6492;48.128;8.320;2022-09-30T02:31:54;5.00;74.70
12847;DHT22;6492;48.128;8.320;2022-09-30T02:36:00;4.90;74.80
12847;DHT22;6492;48.128;8.320;2022-09-30T02:40:12;4.90;74.70
12847;DHT22;6492;48.128;8.320;2022-09-30T02:44:16;4.80;74.50
12847;DHT22;6492;48.128;8.320;2022-09-30T02:48:26;4.80;74.70
12847;DHT22;6492;48.128;8.320;2022-09-30T02:52:41;4.70;74.70
12847;DHT22;6492;48.128;8.320;2022-09-30T02:56:52;4.60;74.40
12847;DHT22;6492;48.128;8.320;2022-09-30T03:00:55;4.40;73.90
12847;DHT22;6492;48.128;8.320;2022-09-30T03:04:57;4.30;73.90
12847;DHT22;6492;48.128;8.320;2022-09-30T03:08:59;4.30;74.10
12847;DHT22;6492;48.128;8.320;2022-09-30T03:13:13;4.30;74.20
12847;DHT22;6492;48.128;8.320;2022-09-30T03:17:28;4.20;74.20
12847;DHT22;6492;48.128;8.320;2022-09-30T03:21:43;4.20;74.30
12847;DHT22;6492;48.128;8.320;2022-09-30T03:25:55;4.10;74.40
12847;DHT22;6492;48.128;8.320;2022-09-30T03:30:03;4.10;74.70
12847;DHT22;6492;48.128;8.320;2022-09-30T03:34:14;4.20;75.10
12847;DHT22;6492;48.128;8.320;2022-09-30T03:38:26;4.30;75.40
12847;DHT22;6492;48.128;8.320;2022-09-30T03:42:36;4.30;75.50
12847;DHT22;6492;48.128;8.320;2022-09-30T03:46:43;4.30;75.70
12847;DHT22;6492;48.128;8.320;2022-09-30T03:50:45;4.30;75.60
12847;DHT22;6492;48.128;8.320;2022-09-30T03:54:51;4.30;75.80
12847;DHT22;6492;48.128;8.320;2022-09-30T03:58:54;4.30;75.60
12847;DHT22;6492;48.128;8.320;2022-09-30T04:02:58;4.20;75.50
12847;DHT22;6492;48.128;8.320;2022-09-30T04:07:00;4.20;75.50
12847;DHT22;6492;48.128;8.320;2022-09-30T04:11:02;4.10;76.20
12847;DHT22;6492;48.128;8.320;2022-09-30T04:15:05;4.00;75.00
12847;DHT22;6492;48.128;8.320;2022-09-30T04:19:26;3.90;75.10
12847;DHT22;6492;48.128;8.320;2022-09-30T04:23:28;3.90;75.10
12847;DHT22;6492;48.128;8.320;2022-09-30T04:27:30;3.90;75.40
12847;DHT22;6492;48.128;8.320;2022-09-30T04:31:32;4.00;75.60
12847;DHT22;6492;48.128;8.320;2022-09-30T04:35:37;4.10;75.90
12847;DHT22;6492;48.128;8.320;2022-09-30T04:39:58;4.10;76.00
12847;DHT22;6492;48.128;8.320;2022-09-30T04:48:48;4.20;76.20
12847;DHT22;6492;48.128;8.320;2022-09-30T04:52:56;4.30;76.50
12847;DHT22;6492;48.128;8.320;2022-09-30T04:57:26;4.40;76.60
12847;DHT22;6492;48.128;8.320;2022-09-30T05:01:28;4.50;76.70
12847;DHT22;6492;48.128;8.320;2022-09-30T05:05:30;4.60;76.80
12847;DHT22;6492;48.128;8.320;2022-09-30T05:09:34;4.60;76.80
12847;DHT22;6492;48.128;8.320;2022-09-30T05:13:38;4.70;76.90
12847;DHT22;6492;48.128;8.320;2022-09-30T05:17:40;4.70;77.00
12847;DHT22;6492;48.128;8.320;2022-09-30T05:21:42;4.70;77.00
12847;DHT22;6492;48.128;8.320;2022-09-30T05:26:14;4.70;77.00
12847;DHT22;6492;48.128;8.320;2022-09-30T05:30:16;4.70;77.00
12847;DHT22;6492;48.128;8.320;2022-09-30T08:54:40;9.90;46.00
12847;DHT22;6492;48.128;8.320;2022-09-30T09:07:26;10.70;36.80
12847;DHT22;6492;48.128;8.320;2022-09-30T09:11:44;11.00;35.50
12847;DHT22;6492;48.128;8.320;2022-09-30T09:15:58;11.20;32.10
12847;DHT22;6492;48.128;8.320;2022-09-30T09:20:06;11.50;31.00
12847;DHT22;6492;48.128;8.320;2022-09-30T09:24:14;11.70;27.90
12847;DHT22;6492;48.128;8.320;2022-09-30T09:28:30;12.00;25.80
12847;DHT22;6492;48.128;8.320;2022-09-30T09:32:36;12.10;23.50
12847;DHT22;6492;48.128;8.320;2022-09-30T09:36:56;12.20;23.30
12847;DHT22;6492;48.128;8.320;2022-09-30T09:41:17;12.40;22.60
12847;DHT22;6492;48.128;8.320;2022-09-30T09:45:27;12.50;22.20
12847;DHT22;6492;48.128;8.320;2022-09-30T09:49:32;12.40;21.50
12847;DHT22;6492;48.128;8.320;2022-09-30T09:53:45;12.20;21.20
12847;DHT22;6492;48.128;8.320;2022-09-30T09:58:04;11.90;21.70
12847;DHT22;6492;48.128;8.320;2022-09-30T10:06:42;11.90;23.80
12847;DHT22;6492;48.128;8.320;2022-09-30T10:10:47;12.70;21.70
12847;DHT22;6492;48.128;8.320;2022-09-30T10:14:53;13.00;20.80
12847;DHT22;6492;48.128;8.320;2022-09-30T10:18:57;13.20;21.00
12847;DHT22;6492;48.128;8.320;2022-09-30T10:23:06;13.60;21.30
12847;DHT22;6492;48.128;8.320;2022-09-30T10:27:25;14.40;18.10
12847;DHT22;6492;48.128;8.320;2022-09-30T10:31:29;15.20;15.00
12847;DHT22;6492;48.128;8.320;2022-09-30T10:35:32;15.80;11.00
12847;DHT22;6492;48.128;8.320;2022-09-30T10:39:36;16.00;11.10
12847;DHT22;6492;48.128;8.320;2022-09-30T10:43:43;16.50;11.00
12847;DHT22;6492;48.128;8.320;2022-09-30T10:47:48;17.40;8.70
12847;DHT22;6492;48.128;8.320;2022-09-30T10:51:50;17.90;6.10
12847;DHT22;6492;48.128;8.320;2022-09-30T10:55:54;18.30;5.70
12847;DHT22;6492;48.128;8.320;2022-09-30T10:59:58;19.00;5.50
12847;DHT22;6492;48.128;8.320;2022-09-30T11:04:15;19.70;1.00
12847;DHT22;6492;48.128;8.320;2022-09-30T11:08:21;19.70;1.00
12847;DHT22;6492;48.128;8.320;2022-09-30T11:12:31;19.50;1.40
12847;DHT22;6492;48.128;8.320;2022-09-30T11:16:40;19.00;1.20
12847;DHT22;6492;48.128;8.320;2022-09-30T11:20:52;18.70;2.80
12847;DHT22;6492;48.128;8.320;2022-09-30T11:24:55;18.20;3.30
12847;DHT22;6492;48.128;8.320;2022-09-30T11:29:08;17.40;2.40
12847;DHT22;6492;48.128;8.320;2022-09-30T11:33:29;17.00;5.00
12847;DHT22;6492;48.128;8.320;2022-09-30T11:37:43;16.90;4.70
12847;DHT22;6492;48.128;8.320;2022-09-30T11:41:56;16.90;5.20
12847;DHT22;6492;48.128;8.320;2022-09-30T11:46:15;17.10;5.50
12847;DHT22;6492;48.128;8.320;2022-09-30T11:50:25;17.60;5.10
12847;DHT22;6492;48.128;8.320;2022-09-30T11:54:40;18.30;2.60
12847;DHT22;6492;48.128;8.320;2022-09-30T11:58:48;18.50;2.40
12847;DHT22;6492;48.128;8.320;2022-09-30T12:02:54;18.00;1.80
12847;DHT22;6492;48.128;8.320;2022-09-30T12:07:04;16.90;3.30
12847;DHT22;6492;48.128;8.320;2022-09-30T12:11:11;16.20;5.70
12847;DHT22;6492;48.128;8.320;2022-09-30T12:15:16;15.80;5.60
12847;DHT22;6492;48.128;8.320;2022-09-30T12:19:25;15.40;6.20
12847;DHT22;6492;48.128;8.320;2022-09-30T12:23:32;15.30;5.90
12847;DHT22;6492;48.128;8.320;2022-09-30T12:27:41;15.30;6.70
12847;DHT22;6492;48.128;8.320;2022-09-30T12:32:20;15.30;7.40
12847;DHT22;6492;48.128;8.320;2022-09-30T12:36:56;15.20;7.00
12847;DHT22;6492;48.128;8.320;2022-09-30T12:41:22;15.00;7.00
12847;DHT22;6492;48.128;8.320;2022-09-30T12:49:59;14.90;6.60
12847;DHT22;6492;48.128;8.320;2022-09-30T12:54:11;14.90;7.50
12847;DHT22;6492;48.128;8.320;2022-09-30T12:58:43;15.00;8.50
12847;DHT22;6492;48.128;8.320;2022-09-30T13:02:51;14.90;7.90
12847;DHT22;6492;48.128;8.320;2022-09-30T13:07:17;14.80;7.60
12847;DHT22;6492;48.128;8.320;2022-09-30T13:11:44;14.80;8.70
12847;DHT22;6492;48.128;8.320;2022-09-30T13:15:47;14.80;7.70
12847;DHT22;6492;48.128;8.320;2022-09-30T13:19:51;14.60;8.40
12847;DHT22;6492;48.128;8.320;2022-09-30T13:23:55;14.50;7.70
12847;DHT22;6492;48.128;8.320;2022-09-30T13:28:26;14.40;8.90
12847;DHT22;6492;48.128;8.320;2022-09-30T13:32:32;14.30;7.90
12847;DHT22;6492;48.128;8.320;2022-09-30T13:36:39;14.00;8.90
12847;DHT22;6492;48.128;8.320;2022-09-30T13:41:13;13.80;9.20
12847;DHT22;6492;48.128;8.320;2022-09-30T13:45:24;13.50;8.70
12847;DHT22;6492;48.128;8.320;2022-09-30T13:49:37;13.30;10.10
12847;DHT22;6492;48.128;8.320;2022-09-30T13:53:43;13.10;9.90
12847;DHT22;6492;48.128;8.320;2022-09-30T13:57:55;13.10;11.20
12847;DHT22;6492;48.128;8.320;2022-09-30T14:06:50;13.00;16.40
12847;DHT22;6492;48.128;8.320;2022-09-30T14:11:06;12.80;17.40
12847;DHT22;6492;48.128;8.320;2022-09-30T14:20:07;12.50;19.40
12847;DHT22;6492;48.128;8.320;2022-09-30T14:24:20;12.30;18.90
12847;DHT22;6492;48.128;8.320;2022-09-30T14:28:31;12.10;20.30
12847;DHT22;6492;48.128;8.320;2022-09-30T14:32:42;12.00;21.50
12847;DHT22;6492;48.128;8.320;2022-09-30T14:36:48;11.90;22.60
12847;DHT22;6492;48.128;8.320;2022-09-30T14:40:54;11.90;23.80
12847;DHT22;6492;48.128;8.320;2022-09-30T14:44:58;11.90;25.60
12847;DHT22;6492;48.128;8.320;2022-09-30T14:49:06;11.90;25.90
12847;DHT22;6492;48.128;8.320;2022-09-30T14:53:23;11.90;25.70
12847;DHT22;6492;48.128;8.320;2022-09-30T14:57:28;11.80;25.70
12847;DHT22;6492;48.128;8.320;2022-09-30T15:01:34;11.80;25.90
12847;DHT22;6492;48.128;8.320;2022-09-30T15:05:37;11.70;26.10
12847;DHT22;6492;48.128;8.320;2022-09-30T15:09:41;11.60;26.80
12847;DHT22;6492;48.128;8.320;2022-09-30T15:13:50;11.60;27.10
12847;DHT22;6492;48.128;8.320;2022-09-30T15:17:53;11.60;27.90
12847;DHT22;6492;48.128;8.320;2022-09-30T15:22:06;11.60;27.60
12847;DHT22;6492;48.128;8.320;2022-09-30T15:26:11;11.60;26.90
12847;DHT22;6492;48.128;8.320;2022-09-30T15:30:27;11.80;26.30
12847;DHT22;6492;48.128;8.320;2022-09-30T15:34:29;12.40;24.30
12847;DHT22;6492;48.128;8.320;2022-09-30T15:38:34;12.90;22.40
12847;DHT22;6492;48.128;8.320;2022-09-30T15:42:38;13.20;20.20
12847;DHT22;6492;48.128;8.320;2022-09-30T15:51:37;13.60;19.90
12847;DHT22;6492;48.128;8.320;2022-09-30T15:55:42;14.10;17.70
12847;DHT22;6492;48.128;8.320;2022-09-30T15:59:58;14.10;17.30
12847;DHT22;6492;48.128;8.320;2022-09-30T16:04:04;14.00;14.60
12847;DHT22;6492;48.128;8.320;2022-09-30T16:08:17;13.60;14.60
12847;DHT22;6492;48.128;8.320;2022-09-30T16:12:23;12.80;16.00
12847;DHT22;6492;48.128;8.320;2022-09-30T16:16:27;12.10;17.90
12847;DHT22;6492;48.128;8.320;2022-09-30T16:20:35;11.40;20.00
12847;DHT22;6492;48.128;8.320;2022-09-30T16:24:46;10.90;22.20
12847;DHT22;6492;48.128;8.320;2022-09-30T16:28:48;10.40;24.70
12847;DHT22;6492;48.128;8.320;2022-09-30T16:32:51;9.90;26.50
12847;DHT22;6492;48.128;8.320;2022-09-30T16:37:09;9.50;28.30
12847;DHT22;6492;48.128;8.320;2022-09-30T16:41:13;9.10;29.90
12847;DHT22;6492;48.128;8.320;2022-09-30T16:45:16;8.80;31.40
12847;DHT22;6492;48.128;8.320;2022-09-30T16:49:19;8.40;34.10
12847;DHT22;6492;48.128;8.320;2022-09-30T16:53:21;8.10;37.30
12847;DHT22;6492;48.128;8.320;2022-09-30T16:57:24;7.80;38.00
12847;DHT22;6492;48.128;8.320;2022-09-30T17:01:45;7.50;39.10
12847;DHT22;6492;48.128;8.320;2022-09-30T17:05:47;7.30;40.60
12847;DHT22;6492;48.128;8.320;2022-09-30T17:10:17;7.10;43.70
12847;DHT22;6492;48.128;8.320;2022-09-30T17:14:46;6.80;45.60
12847;DHT22;6492;48.128;8.320;2022-09-30T17:18:48;6.70;50.90
12847;DHT22;6492;48.128;8.320;2022-09-30T17:23:23;6.60;55.30
12847;DHT22;6492;48.128;8.320;2022-09-30T17:27:26;6.50;58.20
12847;DHT22;6492;48.128;8.320;2022-09-30T17:31:29;6.30;59.40
12847;DHT22;6492;48.128;8.320;2022-09-30T17:35:31;6.10;60.30
12847;DHT22;6492;48.128;8.320;2022-09-30T17:39:33;6.10;62.20
12847;DHT22;6492;48.128;8.320;2022-09-30T17:43:35;6.00;63.40
12847;DHT22;6492;48.128;8.320;2022-09-30T17:47:39;5.80;64.20
12847;DHT22;6492;48.128;8.320;2022-09-30T17:51:42;5.90;66.20
12847;DHT22;6492;48.128;8.320;2022-09-30T17:55:47;5.80;66.30
12847;DHT22;6492;48.128;8.320;2022-09-30T18:00:12;5.60;66.50
12847;DHT22;6492;48.128;8.320;2022-09-30T18:04:32;5.50;66.80
12847;DHT22;6492;48.128;8.320;2022-09-30T18:08:37;5.30;66.30
12847;DHT22;6492;48.128;8.320;2022-09-30T18:12:39;5.00;66.00
12847;DHT22;6492;48.128;8.320;2022-09-30T18:16:41;5.00;67.10
12847;DHT22;6492;48.128;8.320;2022-09-30T18:20:45;4.90;68.20
12847;DHT22;6492;48.128;8.320;2022-09-30T18:24:48;4.80;68.50
12847;DHT22;6492;48.128;8.320;2022-09-30T18:29:08;4.80;68.50
12847;DHT22;6492;48.128;8.320;2022-09-30T18:33:12;4.70;69.40
12847;DHT22;6492;48.128;8.320;2022-09-30T18:37:18;4.70;69.40
12847;DHT22;6492;48.128;8.320;2022-09-30T18:41:20;4.60;69.20
12847;DHT22;6492;48.128;8.320;2022-09-30T18:45:30;4.40;69.60
12847;DHT22;6492;48.128;8.320;2022-09-30T18:49:35;4.30;69.00
12847;DHT22;6492;48.128;8.320;2022-09-30T18:53:38;4.30;69.60
12847;DHT22;6492;48.128;8.320;2022-09-30T18:57:40;4.20;70.00
12847;DHT22;6492;48.128;8.320;2022-09-30T19:01:44;4.20;70.80
12847;DHT22;6492;48.128;8.320;2022-09-30T19:05:46;4.30;71.70
12847;DHT22;6492;48.128;8.320;2022-09-30T19:09:50;4.30;71.70
12847;DHT22;6492;48.128;8.320;2022-09-30T19:13:52;4.20;71.30
12847;DHT22;6492;48.128;8.320;2022-09-30T19:17:55;4.20;71.40
12847;DHT22;6492;48.128;8.320;2022-09-30T19:21:58;4.20;71.90
12847;DHT22;6492;48.128;8.320;2022-09-30T19:26:04;4.30;72.30
12847;DHT22;6492;48.128;8.320;2022-09-30T19:30:08;4.30;72.70
12847;DHT22;6492;48.128;8.320;2022-09-30T19:34:10;4.50;73.20
12847;DHT22;6492;48.128;8.320;2022-09-30T19:38:12;4.50;73.50
12847;DHT22;6492;48.128;8.320;2022-09-30T19:42:16;4.50;73.30
12847;DHT22;6492;48.128;8.320;2022-09-30T19:46:35;4.20;72.50
12847;DHT22;6492;48.128;8.320;2022-09-30T19:50:37;4.00;71.80
12847;DHT22;6492;48.128;8.320;2022-09-30T19:54:44;3.90;72.00
12847;DHT22;6492;48.128;8.320;2022-09-30T19:58:52;3.80;72.30
12847;DHT22;6492;48.128;8.320;2022-09-30T20:03:00;3.70;72.40
12847;DHT22;6492;48.128;8.320;2022-09-30T20:07:12;3.70;72.70
12847;DHT22;6492;48.128;8.320;2022-09-30T20:11:16;3.70;73.00
